Time;durP1;ratioP1;P1;durP2;ratioP2;P2;SDS_P1;SDS_P2;PMS_P1;PMS_P2;Temp;Humidity;BMP_temperature;BMP_pressure;BME280_temperature;BME280_humidity;BME280_pressure;Samples;Min_cycle;Max_cycle;Signal;HPM_P1;HPM_P2
2024/02/01 05:06:42;;;;;;;;;82.33;63.67;;;;;;;;5671743;39;10000391;-66
2024/02/01 05:12:47;;;;;;;;;82.00;66.67;;;;;;;;6348240;36;9999770;-67
2024/02/01 05:18:52;;;;;;;;;76.67;63.33;;;;;;;;6489818;46;10794;-67
2024/02/01 16:42:55;;;;;;;;;72.50;58.25;;;;;;;;6405294;39;5000927;-68
2024/02/01 16:49:00;;;;;;;;;71.50;58.00;;;;;;;;6492216;31;8905;-71
2024/02/01 16:55:07;;;;;;;;;79.33;63.33;;;;;;;;6493609;46;8841;-68
2024/02/01 17:01:37;;;;;;;;;75.33;61.00;;;;;;;;6493593;39;8923;-69
2024/02/01 17:07:44;;;;;;;;;68.33;57.00;;;;;;;;6493919;46;8818;-69
2024/02/01 17:13:51;;;;;;;;;82.67;64.33;;;;;;;;6493420;46;8878;-69
2024/02/01 17:19:53;;;;;;;;;79.00;64.00;;;;;;;;6493236;39;8928;-67
2024/02/01 17:26:11;;;;;;;;;80.00;61.33;;;;;;;;6493592;31;8890;-68
2024/02/01 17:32:15;;;;;;;;;75.33;60.00;;;;;;;;6492160;39;8948;-69
2024/02/01 17:38:21;;;;;;;;;82.00;58.67;;;;;;;;6493656;46;8852;-67
2024/02/01 17:44:30;;;;;;;;;78.67;62.33;;;;;;;;6492057;46;8931;-69
2024/02/01 17:50:41;;;;;;;;;82.67;63.67;;;;;;;;6493458;46;8875;-68
2024/02/01 17:56:50;;;;;;;;;83.33;66.33;;;;;;;;6492875;39;9548;-69
2024/02/01 18:02:54;;;;;;;;;75.33;61.67;;;;;;;;6492452;46;8949;-68
2024/02/01 18:08:59;;;;;;;;;81.33;61.00;;;;;;;;6493781;39;9736;-69
2024/02/01 18:15:25;;;;;;;;;79.00;63.67;;;;;;;;6493662;39;8879;-70
2024/02/01 18:21:31;;;;;;;;;82.00;64.33;;;;;;;;6493057;46;8909;-69
2024/02/01 18:27:34;;;;;;;;;82.00;63.50;;;;;;;;6492902;39;8868;-70
2024/02/01 18:33:40;;;;;;;;;75.33;61.33;;;;;;;;6494206;31;8877;-67
2024/02/01 18:39:48;;;;;;;;;85.33;66.00;;;;;;;;6493531;39;8978;-68
2024/02/01 18:45:52;;;;;;;;;78.00;62.00;;;;;;;;6492264;39;9173;-69
2024/02/01 18:52:00;;;;;;;;;79.00;63.00;;;;;;;;6538604;36;8891;-67
2024/02/01 18:58:03;;;;;;;;;83.67;64.33;;;;;;;;6491317;39;8877;-69
2024/02/01 19:04:15;;;;;;;;;82.00;65.67;;;;;;;;6492161;39;8904;-68
2024/02/01 19:10:18;;;;;;;;;80.67;63.67;;;;;;;;6493275;39;8933;-68
2024/02/01 19:16:25;;;;;;;;;83.00;65.67;;;;;;;;6492390;39;9557;-68
2024/02/01 19:22:34;;;;;;;;;83.67;67.00;;;;;;;;6492612;39;9445;-68
2024/02/01 19:28:45;;;;;;;;;79.00;61.75;;;;;;;;6491632;47;8946;-69
2024/02/01 19:34:48;;;;;;;;;83.00;64.00;;;;;;;;6492339;31;8921;-67
2024/02/01 19:40:53;;;;;;;;;82.00;66.33;;;;;;;;6491150;39;8903;-67
2024/02/01 19:46:56;;;;;;;;;84.33;65.67;;;;;;;;6492086;39;8912;-68
2024/02/01 19:52:59;;;;;;;;;79.67;64.00;;;;;;;;6492671;47;8863;-68
2024/02/01 19:59:05;;;;;;;;;80.67;62.33;;;;;;;;6492644;39;8926;-67
2024/02/01 20:05:11;;;;;;;;;82.67;66.33;;;;;;;;6493364;31;9573;-67
2024/02/01 20:11:13;;;;;;;;;86.67;67.67;;;;;;;;6491765;47;8935;-69
2024/02/01 20:17:19;;;;;;;;;85.33;68.67;;;;;;;;6491493;39;8891;-69
2024/02/01 20:23:21;;;;;;;;;89.00;67.67;;;;;;;;6491576;39;8876;-69
2024/02/01 20:29:25;;;;;;;;;82.67;66.00;;;;;;;;6491330;47;8910;-68
2024/02/01 20:35:36;;;;;;;;;85.33;67.00;;;;;;;;6492879;31;8848;-69
2024/02/01 20:42:14;;;;;;;;;87.00;67.33;;;;;;;;6492071;46;8904;-67
2024/02/01 20:48:27;;;;;;;;;84.33;67.00;;;;;;;;6491856;46;8920;-68
2024/02/01 20:54:38;;;;;;;;;87.33;67.00;;;;;;;;6492050;39;8887;-67
2024/02/01 21:00:45;;;;;;;;;89.00;70.33;;;;;;;;6491360;46;8892;-67
2024/02/01 21:06:50;;;;;;;;;93.67;71.33;;;;;;;;6491798;46;8961;-67
2024/02/01 21:13:06;;;;;;;;;90.67;70.00;;;;;;;;6492346;39;8880;-68
2024/02/01 21:19:13;;;;;;;;;99.50;73.50;;;;;;;;6491464;46;8843;-68
2024/02/01 21:25:45;;;;;;;;;86.67;68.67;;;;;;;;6491745;39;8856;-67
2024/02/01 21:32:02;;;;;;;;;90.33;71.67;;;;;;;;6491391;46;8844;-68
2024/02/01 21:38:08;;;;;;;;;93.67;71.67;;;;;;;;6491217;31;8936;-67
2024/02/01 21:44:14;;;;;;;;;97.00;72.00;;;;;;;;6492431;31;8867;-69
2024/02/01 21:50:18;;;;;;;;;89.33;72.00;;;;;;;;6491063;39;8931;-69
2024/02/01 21:56:20;;;;;;;;;89.67;68.67;;;;;;;;6491565;31;8859;-67
2024/02/01 22:02:24;;;;;;;;;86.67;70.00;;;;;;;;6490592;31;8948;-67
2024/02/01 22:08:27;;;;;;;;;88.33;68.00;;;;;;;;6490774;46;8945;-68
2024/02/01 22:14:31;;;;;;;;;83.67;66.33;;;;;;;;6490701;46;8907;-68
2024/02/01 22:20:33;;;;;;;;;88.00;69.67;;;;;;;;6490073;46;8887;-67
2024/02/01 22:26:36;;;;;;;;;85.67;67.67;;;;;;;;6490583;39;8951;-67
2024/02/01 22:32:40;;;;;;;;;85.67;66.33;;;;;;;;6491605;31;9017;-69
2024/02/01 22:38:43;;;;;;;;;86.67;65.67;;;;;;;;6490441;39;8908;-67
2024/02/01 22:44:45;;;;;;;;;89.67;68.67;;;;;;;;6489031;46;8990;-67
2024/02/01 22:50:50;;;;;;;;;94.33;70.67;;;;;;;;6489815;31;8915;-67
2024/02/01 22:56:53;;;;;;;;;88.33;70.67;;;;;;;;6490698;31;9030;-67
2024/02/01 23:02:59;;;;;;;;;93.00;73.00;;;;;;;;6490438;46;8875;-68
2024/02/01 23:09:05;;;;;;;;;78.67;61.67;;;;;;;;6489832;46;8895;-68
2024/02/01 23:15:10;;;;;;;;;83.00;64.67;;;;;;;;6491005;39;8895;-67
2024/02/01 23:21:17;;;;;;;;;87.67;67.33;;;;;;;;6490779;39;9699;-67
2024/02/01 23:27:22;;;;;;;;;79.00;61.67;;;;;;;;6490244;47;8911;-67
2024/02/01 23:33:27;;;;;;;;;81.00;65.00;;;;;;;;6490465;47;8871;-67
2024/02/01 23:39:35;;;;;;;;;94.67;69.67;;;;;;;;6308711;47;10001026;-69
2024/02/01 23:45:37;;;;;;;;;90.00;71.00;;;;;;;;6491285;39;12392;-68
2024/02/01 23:51:42;;;;;;;;;96.00;71.00;;;;;;;;6490689;39;8891;-68
2024/02/01 23:57:47;;;;;;;;;94.00;71.50;;;;;;;;6490215;46;8902;-67
